createdAt,value
2022-10-12T00:00:02.393Z,12.76
2022-10-12T00:01:34.431Z,12.73
2022-10-12T00:03:06.424Z,12.78
2022-10-12T00:04:38.424Z,12.75
2022-10-12T00:06:13.384Z,12.77
2022-10-12T00:07:45.429Z,12.75
2022-10-12T00:09:17.508Z,12.75
2022-10-12T00:10:49.477Z,12.76
2022-10-12T00:12:21.606Z,12.75
2022-10-12T00:13:54.192Z,12.74
2022-10-12T00:15:26.301Z,12.70
2022-10-12T00:16:58.504Z,12.69
2022-10-12T00:18:31.300Z,12.68
2022-10-12T00:20:04.844Z,12.69
2022-10-12T00:21:36.808Z,12.67
2022-10-12T00:23:08.839Z,12.67
2022-10-12T00:24:43.000Z,12.68
2022-10-12T00:26:18.402Z,12.67
2022-10-12T00:27:50.509Z,12.65
2022-10-12T00:29:22.523Z,12.66
2022-10-12T00:30:54.579Z,12.66
2022-10-12T00:32:26.524Z,12.68
2022-10-12T00:34:01.716Z,12.71
2022-10-12T00:35:33.659Z,12.70
2022-10-12T00:37:05.687Z,12.70
2022-10-12T00:38:37.624Z,12.74
2022-10-12T00:40:10.321Z,12.75
2022-10-12T00:41:43.944Z,12.75
2022-10-12T00:43:38.277Z,12.76
2022-10-12T00:45:10.548Z,12.68
2022-10-12T00:46:45.406Z,12.71
2022-10-12T00:48:17.396Z,12.68
2022-10-12T00:49:56.986Z,12.71
2022-10-12T00:51:28.977Z,12.68
2022-10-12T00:53:10.741Z,12.70
2022-10-12T00:54:47.721Z,12.69
2022-10-12T00:56:22.911Z,12.73
2022-10-12T00:57:55.704Z,12.74
2022-10-12T00:59:32.768Z,12.78
2022-10-12T01:01:05.632Z,12.76
2022-10-12T01:02:39.241Z,12.75
2022-10-12T01:04:11.049Z,12.79
2022-10-12T01:05:43.190Z,12.74
2022-10-12T01:07:15.190Z,12.70
2022-10-12T01:08:47.348Z,12.68
2022-10-12T01:10:19.470Z,12.71
2022-10-12T01:11:51.506Z,12.73
2022-10-12T01:13:23.651Z,12.72
2022-10-12T01:14:55.783Z,12.70
2022-10-12T01:16:29.875Z,12.70
2022-10-12T01:18:07.040Z,12.70
2022-10-12T01:19:38.942Z,12.69
2022-10-12T01:21:17.438Z,12.73
2022-10-12T01:22:57.936Z,12.71
2022-10-12T01:24:49.362Z,12.74
2022-10-12T01:26:39.368Z,12.73
2022-10-12T01:28:28.333Z,12.69
2022-10-12T01:30:19.415Z,12.68
2022-10-12T01:32:03.461Z,12.72
2022-10-12T01:33:46.576Z,12.72
2022-10-12T01:35:27.690Z,12.68
2022-10-12T01:37:16.309Z,12.72
2022-10-12T01:39:01.836Z,12.72
2022-10-12T01:40:45.830Z,12.68
2022-10-12T01:42:22.225Z,12.68
2022-10-12T01:43:54.156Z,12.63
2022-10-12T01:45:26.255Z,12.64
2022-10-12T01:46:58.575Z,12.62
2022-10-12T01:48:30.614Z,12.63
2022-10-12T01:50:05.623Z,12.64
2022-10-12T01:52:09.502Z,12.68
2022-10-12T01:53:57.773Z,12.68
2022-10-12T01:55:39.600Z,12.67
2022-10-12T01:57:48.064Z,12.67
2022-10-12T01:59:42.851Z,12.67
2022-10-12T02:01:44.494Z,12.67
2022-10-12T02:03:36.530Z,12.68
2022-10-12T02:05:19.100Z,12.67
2022-10-12T02:07:19.185Z,12.68
2022-10-12T02:09:01.937Z,12.68
2022-10-12T02:10:41.176Z,12.68
2022-10-12T02:12:17.940Z,12.68
2022-10-12T02:14:13.099Z,12.70
2022-10-12T02:15:45.352Z,12.66
2022-10-12T02:17:19.170Z,12.67
2022-10-12T02:18:53.413Z,12.67
2022-10-12T02:20:26.890Z,12.65
2022-10-12T02:22:01.426Z,12.69
2022-10-12T02:23:34.246Z,12.65
2022-10-12T02:25:12.144Z,12.68
2022-10-12T02:26:45.061Z,12.65
2022-10-12T02:28:19.491Z,12.65
2022-10-12T02:29:51.846Z,12.60
2022-10-12T02:31:23.835Z,12.59
2022-10-12T02:33:26.424Z,12.63
2022-10-12T02:35:07.341Z,12.58
2022-10-12T02:36:50.426Z,12.59
2022-10-12T02:39:14.953Z,12.59
2022-10-12T02:40:58.833Z,12.59
2022-10-12T02:43:05.309Z,12.60
2022-10-12T02:44:31.768Z,12.58
2022-10-12T02:46:05.684Z,12.57
2022-10-12T02:47:38.488Z,12.56
2022-10-12T02:49:12.074Z,12.57
2022-10-12T02:50:44.145Z,12.61
2022-10-12T02:52:16.258Z,12.54
2022-10-12T02:53:48.772Z,12.55
2022-10-12T02:55:20.797Z,12.53
2022-10-12T02:56:52.769Z,12.53
2022-10-12T02:58:24.795Z,12.54
2022-10-12T02:59:56.793Z,12.54
2022-10-12T03:01:28.779Z,12.54
2022-10-12T03:03:00.866Z,12.53
2022-10-12T03:04:32.917Z,12.55
2022-10-12T03:06:05.467Z,12.57
2022-10-12T03:07:37.866Z,12.57
2022-10-12T03:09:10.321Z,12.57
2022-10-12T03:10:42.277Z,12.60
2022-10-12T03:12:14.317Z,12.60
2022-10-12T03:13:46.316Z,12.59
2022-10-12T03:15:18.368Z,12.59
2022-10-12T03:16:50.852Z,12.57
2022-10-12T03:18:22.974Z,12.54
2022-10-12T03:19:54.921Z,12.53
2022-10-12T03:21:26.900Z,12.53
2022-10-12T03:22:58.922Z,12.53
2022-10-12T03:24:30.884Z,12.52
2022-10-12T03:26:03.124Z,12.52
2022-10-12T03:27:35.418Z,12.55
2022-10-12T03:29:09.593Z,12.57
2022-10-12T03:30:43.010Z,12.60
2022-10-12T03:32:18.512Z,12.63
2022-10-12T03:33:50.527Z,12.59
2022-10-12T03:35:22.573Z,12.61
2022-10-12T03:36:54.600Z,12.59
2022-10-12T03:38:26.600Z,12.62
2022-10-12T03:39:58.607Z,12.58
2022-10-12T03:41:30.666Z,12.59
2022-10-12T03:43:02.652Z,12.59
2022-10-12T03:44:34.683Z,12.60
2022-10-12T03:46:06.840Z,12.60
2022-10-12T03:47:39.135Z,12.59
2022-10-12T03:49:11.489Z,12.58
2022-10-12T03:50:43.490Z,12.58
2022-10-12T03:52:15.950Z,12.57
2022-10-12T03:53:47.986Z,12.54
2022-10-12T03:55:20.026Z,12.55
2022-10-12T03:56:52.053Z,12.52
2022-10-12T03:58:24.089Z,12.54
2022-10-12T03:59:56.073Z,12.55
2022-10-12T04:01:28.212Z,12.54
2022-10-12T04:03:00.600Z,12.55
2022-10-12T04:04:32.611Z,12.55
2022-10-12T04:06:05.109Z,12.54
2022-10-12T04:07:37.456Z,12.54
2022-10-12T04:09:09.742Z,12.53
2022-10-12T04:10:42.214Z,12.54
2022-10-12T04:12:14.265Z,12.53
2022-10-12T04:13:46.460Z,12.52
2022-10-12T04:15:18.595Z,12.52
2022-10-12T04:16:50.687Z,12.50
2022-10-12T04:18:22.742Z,12.47
2022-10-12T04:19:54.816Z,12.48
2022-10-12T04:21:26.903Z,12.49
2022-10-12T04:22:58.892Z,12.48
2022-10-12T04:24:30.841Z,12.47
2022-10-12T04:26:02.854Z,12.48
2022-10-12T04:27:35.066Z,12.46
2022-10-12T04:29:09.589Z,12.48
2022-10-12T04:30:41.635Z,12.46
2022-10-12T04:32:16.318Z,12.46
2022-10-12T04:33:48.557Z,12.45
2022-10-12T04:35:20.643Z,12.46
2022-10-12T04:36:52.695Z,12.45
2022-10-12T04:38:24.954Z,12.47
2022-10-12T04:39:57.286Z,12.47
2022-10-12T04:41:29.374Z,12.46
2022-10-12T04:43:01.402Z,12.47
2022-10-12T04:44:33.870Z,12.47
2022-10-12T04:46:05.967Z,12.46
2022-10-12T04:47:38.544Z,12.49
2022-10-12T04:49:11.096Z,12.49
2022-10-12T04:50:43.708Z,12.50
2022-10-12T04:52:15.847Z,12.48
2022-10-12T04:53:47.949Z,12.51
2022-10-12T04:55:19.939Z,12.51
2022-10-12T04:56:52.101Z,12.52
2022-10-12T04:58:24.211Z,12.53
2022-10-12T04:59:56.188Z,12.53
2022-10-12T05:01:28.595Z,12.54
2022-10-12T05:03:00.753Z,12.55
2022-10-12T05:04:32.838Z,12.55
2022-10-12T05:06:05.027Z,12.57
2022-10-12T05:07:37.243Z,12.56
2022-10-12T05:09:13.198Z,12.57
2022-10-12T05:10:48.113Z,12.55
2022-10-12T05:12:20.154Z,12.56
2022-10-12T05:13:52.200Z,12.58
2022-10-12T05:15:24.322Z,12.60
2022-10-12T05:16:56.421Z,12.61
2022-10-12T05:18:28.474Z,12.59
2022-10-12T05:20:00.618Z,12.61
2022-10-12T05:21:32.827Z,12.64
2022-10-12T05:23:05.111Z,12.63
2022-10-12T05:24:37.095Z,12.63
2022-10-12T05:26:09.555Z,12.63
2022-10-12T05:27:41.636Z,12.63
2022-10-12T05:29:13.931Z,12.64
2022-10-12T05:30:50.985Z,12.69
2022-10-12T05:32:23.119Z,12.67
2022-10-12T05:33:55.119Z,12.69
2022-10-12T05:35:27.404Z,12.74
2022-10-12T05:36:59.577Z,12.76
2022-10-12T05:38:31.871Z,12.75
2022-10-12T05:40:04.330Z,12.79
2022-10-12T05:41:36.332Z,12.79
2022-10-12T05:43:08.477Z,12.82
2022-10-12T05:44:40.607Z,12.82
2022-10-12T05:46:14.506Z,12.82
2022-10-12T05:47:46.742Z,12.82
2022-10-12T05:49:18.768Z,12.83
2022-10-12T05:50:57.457Z,12.89
2022-10-12T05:52:29.576Z,12.88
2022-10-12T05:54:01.677Z,12.88
2022-10-12T05:55:33.943Z,12.91
2022-10-12T05:57:06.115Z,12.91
2022-10-12T05:58:38.439Z,12.91
2022-10-12T06:00:11.038Z,12.93
2022-10-12T06:01:45.873Z,12.97
2022-10-12T06:03:18.974Z,12.98
2022-10-12T06:04:51.713Z,12.99
2022-10-12T06:06:24.039Z,13.01
2022-10-12T06:07:56.129Z,13.05
2022-10-12T06:09:28.279Z,13.05
2022-10-12T06:11:00.383Z,13.06
2022-10-12T06:12:33.195Z,13.12
2022-10-12T06:14:05.561Z,13.14
2022-10-12T06:15:37.625Z,13.16
2022-10-12T06:17:10.664Z,13.20
2022-10-12T06:18:42.751Z,13.22
2022-10-12T06:20:14.799Z,13.25
2022-10-12T06:21:46.781Z,13.29
2022-10-12T06:23:25.273Z,13.34
2022-10-12T06:24:57.422Z,13.36
2022-10-12T06:26:31.693Z,13.43
2022-10-12T06:28:03.705Z,13.40
2022-10-12T06:29:36.229Z,13.43
2022-10-12T06:31:08.342Z,13.47
2022-10-12T06:32:40.571Z,13.46
2022-10-12T06:34:13.027Z,13.50
2022-10-12T06:35:48.652Z,13.56
2022-10-12T06:37:47.876Z,13.55
2022-10-12T06:39:15.866Z,13.60
2022-10-12T06:40:47.936Z,13.64
2022-10-12T06:42:19.968Z,13.66
2022-10-12T06:43:52.122Z,13.68
2022-10-12T06:45:24.160Z,13.71
2022-10-12T06:46:56.309Z,13.77
2022-10-12T06:48:29.299Z,13.78
2022-10-12T06:50:01.752Z,13.81
2022-10-12T06:51:33.829Z,13.84
2022-10-12T06:53:05.806Z,13.87
2022-10-12T06:54:38.178Z,13.89
2022-10-12T06:56:11.398Z,13.93
2022-10-12T06:57:43.462Z,13.95
2022-10-12T06:59:15.652Z,13.98
2022-10-12T07:00:47.833Z,14.00
2022-10-12T07:02:19.950Z,14.04
2022-10-12T07:03:52.981Z,14.05
2022-10-12T07:07:00.000Z,14.12
2022-10-12T07:08:32.056Z,14.16
2022-10-12T07:10:05.117Z,14.21
2022-10-12T07:11:37.240Z,14.22
2022-10-12T07:13:12.291Z,14.24
2022-10-12T07:14:44.518Z,14.24
2022-10-12T07:16:16.867Z,14.30
2022-10-12T07:17:48.894Z,14.31
2022-10-12T07:19:20.937Z,14.33
2022-10-12T07:20:55.348Z,14.39
2022-10-12T07:22:27.785Z,14.42
2022-10-12T07:23:59.862Z,14.43
2022-10-12T07:25:32.622Z,14.48
2022-10-12T07:27:06.554Z,14.50
2022-10-12T07:28:38.618Z,14.49
2022-10-12T07:30:11.592Z,14.55
2022-10-12T07:31:46.405Z,14.56
2022-10-12T07:33:23.857Z,14.61
2022-10-12T07:34:55.951Z,14.64
2022-10-12T07:36:47.227Z,14.68
2022-10-12T07:38:20.495Z,14.74
2022-10-12T07:39:57.682Z,14.81
2022-10-12T07:41:30.131Z,14.82
2022-10-12T07:43:15.666Z,14.89
2022-10-12T07:44:51.387Z,14.92
2022-10-12T07:46:23.814Z,14.95
2022-10-12T07:47:56.580Z,14.98
2022-10-12T07:49:28.658Z,15.03
2022-10-12T07:51:09.142Z,15.10
2022-10-12T07:52:41.715Z,15.13
2022-10-12T08:44:01.206Z,16.22
2022-10-12T08:45:47.675Z,16.27
2022-10-12T08:47:37.749Z,16.29
2022-10-12T08:49:21.048Z,16.33
2022-10-12T08:52:33.910Z,16.38
2022-10-12T08:54:08.916Z,16.38
2022-10-12T08:55:44.161Z,16.44
2022-10-12T08:57:18.345Z,16.48
2022-10-12T08:58:52.157Z,16.51
2022-10-12T09:00:25.275Z,16.51
2022-10-12T09:02:23.921Z,16.56
2022-10-12T09:04:37.484Z,16.64
2022-10-12T09:06:15.441Z,16.68
2022-10-12T09:08:00.588Z,16.75
2022-10-12T09:09:59.664Z,16.79
2022-10-12T09:12:13.853Z,16.82
2022-10-12T09:14:01.535Z,16.87
2022-10-12T09:15:37.607Z,16.90
2022-10-12T09:17:32.186Z,16.96
2022-10-12T09:19:23.480Z,16.97
2022-10-12T09:20:55.969Z,16.98
2022-10-12T09:22:29.749Z,16.99
2022-10-12T09:24:07.296Z,17.05
2022-10-12T09:25:39.790Z,17.07
2022-10-12T09:27:17.596Z,17.12
2022-10-12T09:28:55.529Z,17.12
2022-10-12T09:30:27.986Z,17.13
2022-10-12T09:32:18.925Z,17.19
2022-10-12T09:34:10.056Z,17.25
2022-10-12T09:35:43.504Z,17.26
2022-10-12T09:37:21.653Z,17.30
2022-10-12T09:38:54.013Z,17.30
2022-10-12T09:40:33.584Z,17.33
2022-10-12T09:42:05.702Z,17.31
2022-10-12T09:43:38.004Z,17.39
2022-10-12T09:45:17.206Z,17.43
2022-10-12T09:46:56.591Z,17.47
2022-10-12T09:48:28.675Z,17.43
2022-10-12T09:50:06.816Z,17.46
2022-10-12T09:51:38.818Z,17.45
2022-10-12T09:53:30.075Z,17.49
2022-10-12T09:55:05.995Z,17.48
2022-10-12T09:57:07.509Z,17.50
2022-10-12T09:59:03.044Z,17.63
2022-10-12T10:00:36.236Z,17.67
2022-10-12T10:02:11.721Z,17.75
2022-10-12T10:03:44.209Z,17.73
2022-10-12T10:05:26.772Z,17.82
2022-10-12T10:07:33.833Z,17.87
2022-10-12T10:09:06.371Z,17.86
2022-10-12T10:10:38.422Z,17.89
2022-10-12T10:13:55.102Z,17.97
2022-10-12T10:15:30.367Z,18.00
2022-10-12T10:17:02.571Z,18.00
2022-10-12T10:18:39.251Z,18.07
2022-10-12T10:20:30.543Z,18.10
2022-10-12T10:22:07.303Z,18.10
2022-10-12T10:24:00.349Z,18.14
2022-10-12T10:25:34.000Z,18.15
2022-10-12T10:27:07.433Z,18.18
2022-10-12T10:28:41.971Z,18.20
2022-10-12T10:30:30.813Z,18.24
2022-10-12T10:32:13.770Z,18.24
2022-10-12T10:33:46.149Z,18.23
2022-10-12T10:35:21.802Z,18.25
2022-10-12T10:36:56.516Z,18.27
2022-10-12T10:38:32.021Z,18.33
2022-10-12T10:40:07.927Z,18.33
2022-10-12T10:43:28.471Z,18.40
2022-10-12T10:45:09.068Z,18.42
2022-10-12T10:46:41.334Z,18.42
2022-10-12T10:48:22.370Z,18.46
2022-10-12T10:49:59.801Z,18.44
2022-10-12T10:51:45.585Z,18.51
2022-10-12T10:53:22.421Z,18.49
2022-10-12T10:55:42.913Z,18.52
2022-10-12T10:57:19.535Z,18.54
2022-10-12T10:59:00.884Z,18.57
2022-10-12T11:00:39.815Z,18.56
2022-10-12T11:02:22.345Z,18.58
2022-10-12T11:04:00.967Z,18.58
2022-10-12T11:05:36.899Z,18.58
2022-10-12T11:07:32.148Z,18.64
2022-10-12T11:09:30.422Z,18.67
2022-10-12T11:11:15.961Z,18.65
2022-10-12T11:12:50.169Z,18.66
2022-10-12T11:14:28.350Z,18.69
2022-10-12T11:17:42.835Z,18.71
2022-10-12T11:19:38.212Z,18.72
2022-10-12T11:21:23.241Z,18.73
2022-10-12T11:22:59.608Z,18.69
2022-10-12T11:24:48.196Z,18.71
2022-10-12T11:26:29.225Z,18.72
2022-10-12T11:28:01.551Z,18.68
2022-10-12T11:29:34.725Z,18.67
2022-10-12T11:31:24.066Z,18.71
2022-10-12T11:33:02.061Z,18.70
2022-10-12T11:34:48.991Z,18.68
2022-10-12T11:36:24.259Z,18.65
2022-10-12T11:38:10.502Z,18.59
2022-10-12T11:39:48.236Z,18.57
2022-10-12T11:42:09.690Z,18.52
2022-10-12T11:44:04.310Z,18.59
2022-10-12T11:45:40.410Z,18.56
2022-10-12T11:47:30.706Z,18.58
2022-10-12T11:49:34.698Z,18.58
2022-10-12T11:51:07.611Z,18.58
2022-10-12T11:52:45.163Z,18.60
2022-10-12T11:54:42.737Z,18.63
2022-10-12T11:56:26.924Z,18.59
2022-10-12T11:58:02.497Z,18.59
2022-10-12T11:59:43.305Z,18.59
2022-10-12T12:01:33.643Z,18.58
2022-10-12T12:03:33.352Z,18.57
2022-10-12T12:05:07.381Z,18.53
2022-10-12T12:06:45.726Z,18.57
2022-10-12T12:08:57.434Z,18.56
2022-10-12T12:10:31.106Z,18.52
2022-10-12T12:12:25.078Z,18.52
2022-10-12T12:14:21.677Z,18.50
2022-10-12T12:15:53.956Z,18.45
2022-10-12T12:17:31.930Z,18.45
2022-10-12T12:19:15.553Z,18.47
2022-10-12T12:20:47.715Z,18.40
2022-10-12T12:22:31.397Z,18.36
2022-10-12T12:24:03.734Z,18.30
2022-10-12T12:25:37.483Z,18.31
2022-10-12T12:27:47.006Z,18.34
2022-10-12T12:29:28.113Z,18.30
2022-10-12T12:31:25.816Z,18.34
2022-10-12T12:33:05.188Z,18.35
2022-10-12T12:34:37.587Z,18.26
2022-10-12T12:36:16.716Z,18.30
2022-10-12T12:37:50.059Z,18.27
2022-10-12T12:39:23.414Z,18.28
2022-10-12T12:41:07.531Z,18.26
2022-10-12T12:42:39.848Z,18.20
2022-10-12T12:44:34.937Z,18.23
2022-10-12T12:46:08.711Z,18.16
2022-10-12T12:47:45.642Z,18.14
2022-10-12T12:49:38.721Z,18.15
2022-10-12T12:51:20.900Z,18.14
2022-10-12T12:52:53.696Z,18.08
2022-10-12T12:54:26.347Z,18.08
2022-10-12T12:56:07.138Z,18.13
2022-10-12T12:57:48.333Z,18.09
2022-10-12T12:59:52.882Z,18.15
2022-10-12T13:01:37.150Z,18.16
2022-10-12T13:03:30.848Z,18.14
2022-10-12T13:05:12.291Z,18.14
2022-10-12T13:07:02.776Z,18.10
2022-10-12T13:08:52.739Z,18.10
2022-10-12T13:10:43.590Z,18.11
2022-10-12T13:12:34.623Z,18.11
2022-10-12T13:14:25.205Z,18.08
2022-10-12T13:17:09.677Z,18.04
2022-10-12T13:18:45.834Z,18.05
2022-10-12T13:20:15.913Z,18.02
2022-10-12T13:21:50.678Z,18.03
2022-10-12T13:23:25.378Z,18.05
2022-10-12T13:25:04.814Z,17.99
2022-10-12T13:26:37.824Z,18.00
2022-10-12T13:28:19.379Z,18.04
2022-10-12T13:30:04.472Z,18.04
2022-10-12T13:31:39.795Z,18.03
2022-10-12T13:33:12.034Z,18.00
2022-10-12T13:34:46.209Z,18.00
2022-10-12T13:36:22.311Z,17.98
2022-10-12T13:38:05.770Z,18.00
2022-10-12T13:39:47.482Z,17.99
2022-10-12T13:41:20.968Z,17.96
2022-10-12T13:42:53.030Z,17.96
2022-10-12T13:44:35.340Z,18.01
2022-10-12T13:46:12.464Z,17.96
2022-10-12T13:47:45.276Z,17.92
2022-10-12T13:49:21.499Z,17.91
2022-10-12T13:50:56.615Z,17.91
2022-10-12T13:52:32.574Z,17.91
2022-10-12T13:54:20.772Z,17.92
2022-10-12T13:56:02.786Z,17.92
2022-10-12T13:57:50.537Z,17.89
2022-10-12T13:59:24.453Z,17.87
2022-10-12T14:00:57.300Z,17.83
2022-10-12T14:02:32.256Z,17.86
2022-10-12T14:04:05.573Z,17.86
2022-10-12T14:05:43.423Z,17.86
2022-10-12T14:07:20.304Z,17.84
2022-10-12T14:08:52.971Z,17.82
2022-10-12T14:10:30.875Z,17.79
2022-10-12T14:12:03.192Z,17.77
2022-10-12T14:13:36.012Z,17.77
2022-10-12T14:15:08.706Z,17.75
2022-10-12T14:16:41.234Z,17.73
2022-10-12T14:18:40.126Z,17.78
2022-10-12T14:20:37.495Z,17.78
2022-10-12T14:22:10.008Z,17.75
2022-10-12T14:23:47.276Z,17.76
2022-10-12T14:25:25.897Z,17.72
2022-10-12T14:27:03.014Z,17.73
2022-10-12T14:28:38.380Z,17.68
2022-10-12T14:30:24.154Z,17.71
2022-10-12T14:31:59.109Z,17.68
2022-10-12T14:33:31.850Z,17.65
2022-10-12T14:35:14.986Z,17.65
2022-10-12T14:36:47.312Z,17.60
2022-10-12T14:38:46.108Z,17.63
2022-10-12T14:40:36.844Z,17.59
2022-10-12T14:42:27.522Z,17.57
2022-10-12T14:44:20.070Z,17.55
2022-10-12T14:45:52.891Z,17.50
2022-10-12T14:47:38.770Z,17.50
2022-10-12T14:49:25.803Z,17.45
2022-10-12T14:50:57.927Z,17.39
2022-10-12T14:52:45.018Z,17.42
2022-10-12T14:54:17.523Z,17.38
2022-10-12T14:55:52.373Z,17.35
2022-10-12T14:57:29.820Z,17.36
2022-10-12T14:59:02.040Z,17.30
2022-10-12T15:00:35.889Z,17.30
2022-10-12T15:02:15.805Z,17.31
2022-10-12T15:03:47.942Z,17.23
2022-10-12T15:05:25.157Z,17.25
2022-10-12T15:06:57.509Z,17.20
2022-10-12T15:08:29.951Z,17.20
2022-10-12T15:10:02.540Z,17.19
2022-10-12T15:11:37.334Z,17.16
2022-10-12T15:13:13.128Z,17.15
2022-10-12T15:14:45.862Z,17.12
2022-10-12T15:16:22.716Z,17.09
2022-10-12T15:17:55.034Z,17.06
2022-10-12T15:19:27.389Z,17.05
2022-10-12T15:20:59.692Z,17.02
2022-10-12T15:22:31.996Z,16.99
2022-10-12T15:24:14.347Z,17.01
2022-10-12T15:25:53.581Z,16.96
2022-10-12T15:27:25.954Z,16.91
2022-10-12T15:30:30.342Z,16.85
2022-10-12T15:32:02.708Z,16.83
2022-10-12T15:33:35.031Z,16.81
2022-10-12T15:35:18.147Z,16.83
2022-10-12T15:36:50.486Z,16.76
2022-10-12T15:38:23.254Z,16.75
2022-10-12T15:39:55.508Z,16.75
2022-10-12T15:41:27.782Z,16.72
2022-10-12T15:43:00.628Z,16.71
2022-10-12T15:44:33.864Z,16.67
2022-10-12T15:46:06.342Z,16.65
2022-10-12T15:47:38.717Z,16.59
2022-10-12T15:49:13.372Z,16.56
2022-10-12T15:50:49.279Z,16.53
2022-10-12T15:52:21.593Z,16.46
2022-10-12T15:53:54.583Z,16.44
2022-10-12T15:55:31.001Z,16.40
2022-10-12T15:57:02.989Z,16.35
2022-10-12T15:58:35.285Z,16.35
2022-10-12T16:00:08.523Z,16.34
2022-10-12T16:01:40.645Z,16.30
2022-10-12T16:03:22.676Z,16.31
2022-10-12T16:04:57.883Z,16.26
2022-10-12T16:06:30.102Z,16.21
2022-10-12T16:08:03.949Z,16.18
2022-10-12T16:09:36.021Z,16.12
2022-10-12T16:11:11.807Z,16.13
2022-10-12T16:12:46.131Z,16.11
2022-10-12T16:14:18.266Z,16.07
2022-10-12T16:15:50.686Z,16.06
2022-10-12T16:17:22.689Z,16.04
2022-10-12T16:18:54.889Z,16.03
2022-10-12T16:20:29.227Z,16.05
2022-10-12T16:22:03.621Z,16.03
2022-10-12T16:23:36.786Z,16.02
2022-10-12T16:25:11.575Z,16.02
2022-10-12T16:26:47.777Z,15.98
2022-10-12T16:28:20.731Z,15.90
2022-10-12T16:29:53.355Z,15.90
2022-10-12T16:31:25.747Z,15.85
2022-10-12T16:32:58.075Z,15.84
2022-10-12T16:34:31.649Z,15.81
2022-10-12T16:36:15.437Z,15.78
2022-10-12T16:37:47.500Z,15.76
2022-10-12T16:39:19.469Z,15.68
2022-10-12T16:40:51.548Z,15.66
2022-10-12T16:42:23.973Z,15.64
2022-10-12T16:45:28.745Z,15.62
2022-10-12T16:47:02.370Z,15.62
2022-10-12T16:48:34.786Z,15.59
2022-10-12T16:50:07.612Z,15.60
2022-10-12T16:51:40.176Z,15.58
2022-10-12T16:53:12.453Z,15.54
2022-10-12T16:54:44.563Z,15.51
2022-10-12T16:56:16.590Z,15.49
2022-10-12T16:57:48.875Z,15.48
2022-10-12T16:59:24.970Z,15.49
2022-10-12T17:00:57.400Z,15.45
2022-10-12T17:02:29.901Z,15.42
2022-10-12T17:04:02.561Z,15.41
2022-10-12T17:05:35.435Z,15.40
2022-10-12T17:07:07.773Z,15.38
2022-10-12T17:08:40.049Z,15.35
2022-10-12T17:10:12.290Z,15.34
2022-10-12T17:11:44.568Z,15.33
2022-10-12T17:13:16.918Z,15.32
2022-10-12T17:14:49.305Z,15.33
2022-10-12T17:16:39.952Z,15.33
2022-10-12T17:18:12.168Z,15.33
2022-10-12T17:19:44.759Z,15.32
2022-10-12T17:21:17.007Z,15.32
2022-10-12T17:22:49.298Z,15.31
2022-10-12T17:24:22.334Z,15.30
2022-10-12T17:25:59.656Z,15.31
2022-10-12T17:27:32.428Z,15.26
2022-10-12T17:30:44.633Z,15.20
2022-10-12T17:32:16.782Z,15.29
2022-10-12T17:33:49.780Z,15.24
2022-10-12T17:35:22.054Z,15.22
2022-10-12T17:36:58.546Z,15.25
2022-10-12T17:38:30.861Z,15.20
2022-10-12T17:40:03.495Z,15.15
2022-10-12T17:41:35.872Z,15.13
2022-10-12T17:43:08.371Z,15.12
2022-10-12T17:44:40.753Z,15.09
2022-10-12T17:46:13.194Z,15.07
2022-10-12T17:47:45.516Z,15.06
2022-10-12T17:49:23.639Z,15.08
2022-10-12T17:51:03.037Z,15.06
2022-10-12T17:52:39.870Z,15.05
2022-10-12T17:54:12.156Z,14.98
2022-10-12T17:55:48.668Z,14.94
2022-10-12T17:57:21.572Z,14.91
2022-10-12T17:58:58.763Z,14.89
2022-10-12T18:00:31.742Z,14.84
2022-10-12T18:02:06.939Z,14.81
2022-10-12T18:03:43.796Z,14.78
2022-10-12T18:05:16.394Z,14.78
2022-10-12T18:06:49.063Z,14.75
2022-10-12T18:08:21.439Z,14.72
2022-10-12T18:09:53.755Z,14.66
2022-10-12T18:11:26.807Z,14.68
2022-10-12T18:12:59.076Z,14.65
2022-10-12T18:14:31.337Z,14.66
2022-10-12T18:16:04.921Z,14.67
2022-10-12T18:17:37.653Z,14.66
2022-10-12T18:19:14.037Z,14.65
2022-10-12T18:20:46.266Z,14.63
2022-10-12T18:22:19.350Z,14.63
2022-10-12T18:23:52.447Z,14.63
2022-10-12T18:25:24.940Z,14.61
2022-10-12T18:26:57.246Z,14.60
2022-10-12T18:28:29.498Z,14.60
2022-10-12T18:30:01.858Z,14.61
2022-10-12T18:31:34.332Z,14.59
2022-10-12T18:33:06.686Z,14.59
2022-10-12T18:34:41.039Z,14.60
2022-10-12T18:36:13.914Z,14.60
2022-10-12T18:37:46.253Z,14.60
2022-10-12T18:39:18.695Z,14.60
2022-10-12T18:40:50.955Z,14.55
2022-10-12T18:42:23.228Z,14.55
2022-10-12T18:43:58.348Z,14.55
2022-10-12T18:45:31.031Z,14.51
2022-10-12T18:47:03.428Z,14.48
2022-10-12T18:48:35.857Z,14.46
2022-10-12T18:50:08.657Z,14.44
2022-10-12T18:51:43.510Z,14.43
2022-10-12T18:53:15.797Z,14.37
2022-10-12T18:54:50.594Z,14.37
2022-10-12T18:56:23.011Z,14.34
2022-10-12T18:57:55.019Z,14.32
2022-10-12T18:59:27.249Z,14.34
2022-10-12T19:00:59.780Z,14.33
2022-10-12T19:02:33.322Z,14.35
2022-10-12T19:04:07.270Z,14.35
2022-10-12T19:05:39.782Z,14.35
2022-10-12T19:07:12.193Z,14.35
2022-10-12T19:08:44.562Z,14.35
2022-10-12T19:10:17.068Z,14.33
2022-10-12T19:11:49.358Z,14.30
2022-10-12T19:13:21.644Z,14.30
2022-10-12T19:14:53.978Z,14.31
2022-10-12T19:16:26.936Z,14.32
2022-10-12T19:17:59.288Z,14.30
2022-10-12T19:19:32.562Z,14.29
2022-10-12T19:21:10.188Z,14.30
2022-10-12T19:22:42.345Z,14.26
2022-10-12T19:24:16.015Z,14.23
2022-10-12T19:25:48.629Z,14.25
2022-10-12T19:27:21.294Z,14.24
2022-10-12T19:28:55.531Z,14.27
2022-10-12T19:30:29.523Z,14.25
2022-10-12T19:32:01.584Z,14.21
2022-10-12T19:33:33.609Z,14.21
2022-10-12T19:35:06.351Z,14.19
2022-10-12T19:36:39.387Z,14.14
2022-10-12T19:38:11.629Z,14.10
2022-10-12T19:39:47.493Z,14.08
2022-10-12T19:41:19.784Z,14.06
2022-10-12T19:42:52.255Z,14.05
2022-10-12T19:44:24.636Z,14.02
2022-10-12T19:45:56.660Z,14.01
2022-10-12T19:47:29.193Z,14.01
2022-10-12T19:49:01.608Z,14.02
2022-10-12T19:50:34.659Z,14.05
2022-10-12T19:52:06.632Z,14.02
2022-10-12T19:53:43.149Z,14.03
2022-10-12T19:55:17.746Z,14.04
2022-10-12T19:56:49.743Z,14.04
2022-10-12T19:58:21.768Z,14.00
2022-10-12T19:59:54.101Z,13.99
2022-10-12T20:01:29.223Z,14.00
2022-10-12T20:03:01.368Z,13.94
2022-10-12T20:04:33.384Z,13.88
2022-10-12T20:06:09.713Z,13.87
2022-10-12T20:07:41.706Z,13.82
2022-10-12T20:09:13.891Z,13.79
2022-10-12T20:10:46.771Z,13.75
2022-10-12T20:12:19.092Z,13.74
2022-10-12T20:13:52.036Z,13.74
2022-10-12T20:15:24.096Z,13.69
2022-10-12T20:16:56.508Z,13.67
2022-10-12T20:18:29.533Z,13.66
2022-10-12T20:20:01.568Z,13.67
2022-10-12T20:21:33.606Z,13.66
2022-10-12T20:23:05.596Z,13.66
2022-10-12T20:24:37.666Z,13.65
2022-10-12T20:26:18.239Z,13.68
2022-10-12T20:27:50.339Z,13.63
2022-10-12T20:29:22.464Z,13.62
2022-10-12T20:31:00.748Z,13.62
2022-10-12T20:32:34.883Z,13.56
2022-10-12T20:34:06.971Z,13.53
2022-10-12T20:35:46.507Z,13.52
2022-10-12T20:37:19.076Z,13.47
2022-10-12T20:38:51.122Z,13.45
2022-10-12T20:40:23.208Z,13.45
2022-10-12T20:41:55.262Z,13.43
2022-10-12T20:43:27.172Z,13.42
2022-10-12T20:44:59.134Z,13.39
2022-10-12T20:46:31.319Z,13.37
2022-10-12T20:48:03.898Z,13.30
2022-10-12T20:49:36.239Z,13.26
2022-10-12T20:51:10.242Z,13.26
2022-10-12T20:52:45.285Z,13.21
2022-10-12T20:54:19.157Z,13.15
2022-10-12T20:57:23.045Z,13.09
2022-10-12T20:58:55.804Z,13.06
2022-10-12T21:00:28.023Z,13.03
2022-10-12T21:02:00.104Z,13.01
2022-10-12T21:03:32.192Z,12.99
2022-10-12T21:05:08.151Z,12.98
2022-10-12T21:06:42.822Z,12.92
2022-10-12T21:08:15.029Z,12.88
2022-10-12T21:09:47.187Z,12.87
2022-10-12T21:11:19.771Z,12.84
2022-10-12T21:12:51.765Z,12.76
2022-10-12T21:14:29.729Z,12.77
2022-10-12T21:16:01.897Z,12.74
2022-10-12T21:17:34.047Z,12.70
2022-10-12T21:19:06.433Z,12.71
2022-10-12T21:20:38.490Z,12.69
2022-10-12T21:22:10.595Z,12.67
2022-10-12T21:23:54.031Z,12.69
2022-10-12T21:25:26.454Z,12.66
2022-10-12T21:26:58.518Z,12.66
2022-10-12T21:28:30.579Z,12.66
2022-10-12T21:30:02.591Z,12.64
2022-10-12T21:31:34.774Z,12.61
2022-10-12T21:33:06.726Z,12.57
2022-10-12T21:34:38.682Z,12.53
2022-10-12T21:36:20.215Z,12.54
2022-10-12T21:37:52.281Z,12.50
2022-10-12T21:39:24.337Z,12.46
2022-10-12T21:40:59.084Z,12.46
2022-10-12T21:42:31.059Z,12.35
2022-10-12T21:44:03.005Z,12.33